sensor_id;sensor_type;location;lat;lon;timestamp;pressure;altitude;pressure_sealevel;temperature;humidity
17635;BME280;8936;49.010;12.120;2022-12-20T00:01:18;98751.53;;;-0.43;100.00
17635;BME280;8936;49.010;12.120;2022-12-20T00:03:47;98755.47;;;-0.39;100.00
17635;BME280;8936;49.010;12.120;2022-12-20T00:06:14;98758.78;;;-0.45;100.00
17635;BME280;8936;49.010;12.120;2022-12-20T00:08:40;98773.56;;;-0.44;100.00
17635;BME280;8936;49.010;12.120;2022-12-20T00:11:07;98767.28;;;-0.43;100.00
17635;BME280;8936;49.010;12.120;2022-12-20T00:13:33;98768.94;;;-0.42;100.00
17635;BME280;8936;49.010;12.120;2022-12-20T00:16:03;98768.13;;;-0.42;100.00
17635;BME280;8936;49.010;12.120;2022-12-20T00:18:30;98768.31;;;-0.44;100.00
17635;BME280;8936;49.010;12.120;2022-12-20T00:20:58;98769.75;;;-0.41;100.00
17635;BME280;8936;49.010;12.120;2022-12-20T00:23:25;98783.22;;;-0.44;100.00
17635;BME280;8936;49.010;12.120;2022-12-20T00:25:51;98783.38;;;-0.46;100.00
17635;BME280;8936;49.010;12.120;2022-12-20T00:28:17;98782.41;;;-0.45;100.00
17635;BME280;8936;49.010;12.120;2022-12-20T00:30:44;98778.09;;;-0.38;100.00
17635;BME280;8936;49.010;12.120;2022-12-20T00:33:10;98777.63;;;-0.41;100.00
17635;BME280;8936;49.010;12.120;2022-12-20T00:35:40;98781.31;;;-0.28;100.00
17635;BME280;8936;49.010;12.120;2022-12-20T00:38:08;98781.03;;;-0.33;100.00
17635;BME280;8936;49.010;12.120;2022-12-20T00:40:34;98768.25;;;-0.36;100.00
17635;BME280;8936;49.010;12.120;2022-12-20T00:43:00;98776.13;;;-0.36;100.00
17635;BME280;8936;49.010;12.120;2022-12-20T00:45:27;98777.41;;;-0.32;100.00
17635;BME280;8936;49.010;12.120;2022-12-20T00:47:53;98773.50;;;-0.36;100.00
17635;BME280;8936;49.010;12.120;2022-12-20T00:50:20;98778.09;;;-0.38;100.00
17635;BME280;8936;49.010;12.120;2022-12-20T00:52:46;98766.66;;;-0.45;100.00
17635;BME280;8936;49.010;12.120;2022-12-20T00:55:14;98764.38;;;-0.48;100.00
17635;BME280;8936;49.010;12.120;2022-12-20T00:57:40;98762.09;;;-0.51;100.00
17635;BME280;8936;49.010;12.120;2022-12-20T01:00:07;98764.31;;;-0.40;100.00
17635;BME280;8936;49.010;12.120;2022-12-20T01:02:33;98767.28;;;-0.43;100.00
17635;BME280;8936;49.010;12.120;2022-12-20T01:05:00;98756.28;;;-0.38;100.00
17635;BME280;8936;49.010;12.120;2022-12-20T01:07:26;98764.31;;;-0.40;100.00
17635;BME280;8936;49.010;12.120;2022-12-20T01:09:52;98771.56;;;-0.42;100.00
17635;BME280;8936;49.010;12.120;2022-12-20T01:12:20;98778.44;;;-0.41;100.00
17635;BME280;8936;49.010;12.120;2022-12-20T01:14:46;98767.00;;;-0.48;100.00
17635;BME280;8936;49.010;12.120;2022-12-20T01:17:13;98769.28;;;-0.45;100.00
17635;BME280;8936;49.010;12.120;2022-12-20T01:19:39;98768.13;;;-0.42;100.00
17635;BME280;8936;49.010;12.120;2022-12-20T01:22:05;98771.50;;;-0.34;100.00
17635;BME280;8936;49.010;12.120;2022-12-20T01:24:32;98772.50;;;-0.35;100.00
17635;BME280;8936;49.010;12.120;2022-12-20T01:26:58;98768.88;;;-0.34;100.00
17635;BME280;8936;49.010;12.120;2022-12-20T01:29:25;98766.56;;;-0.29;100.00
17635;BME280;8936;49.010;12.120;2022-12-20T01:31:52;98767.91;;;-0.33;100.00
17635;BME280;8936;49.010;12.120;2022-12-20T01:34:18;98755.13;;;-0.36;100.00
17635;BME280;8936;49.010;12.120;2022-12-20T01:36:45;98760.09;;;-0.41;100.00
17635;BME280;8936;49.010;12.120;2022-12-20T01:39:12;98759.91;;;-0.39;100.00
17635;BME280;8936;49.010;12.120;2022-12-20T01:41:39;98756.50;;;-0.48;100.00
17635;BME280;8936;49.010;12.120;2022-12-20T01:44:47;98756.16;;;-0.45;100.00
17635;BME280;8936;49.010;12.120;2022-12-20T01:46:53;98747.31;;;-0.44;100.00
17635;BME280;8936;49.010;12.120;2022-12-20T01:49:20;98751.25;;;-0.48;100.00
17635;BME280;8936;49.010;12.120;2022-12-20T01:51:50;98751.38;;;-0.41;100.00
17635;BME280;8936;49.010;12.120;2022-12-20T01:54:19;98749.81;;;-0.50;100.00
17635;BME280;8936;49.010;12.120;2022-12-20T01:56:49;98753.25;;;-0.50;100.00
17635;BME280;8936;49.010;12.120;2022-12-20T01:59:18;98728.63;;;-0.49;100.00
17635;BME280;8936;49.010;12.120;2022-12-20T02:01:45;98732.53;;;-0.45;100.00
17635;BME280;8936;49.010;12.120;2022-12-20T02:04:12;98735.44;;;-0.32;100.00
17635;BME280;8936;49.010;12.120;2022-12-20T02:06:39;98731.16;;;-0.33;100.00
17635;BME280;8936;49.010;12.120;2022-12-20T02:09:05;98742.00;;;-0.36;100.00
17635;BME280;8936;49.010;12.120;2022-12-20T02:14:20;98741.09;;;-0.51;100.00
17635;BME280;8936;49.010;12.120;2022-12-20T02:16:52;98734.88;;;-0.50;100.00
17635;BME280;8936;49.010;12.120;2022-12-20T02:22:12;98729.09;;;-0.45;100.00
17635;BME280;8936;49.010;12.120;2022-12-20T02:27:34;98725.50;;;-0.44;100.00
17635;BME280;8936;49.010;12.120;2022-12-20T02:30:11;98719.06;;;-0.42;100.00
17635;BME280;8936;49.010;12.120;2022-12-20T02:32:40;98716.69;;;-0.51;100.00
17635;BME280;8936;49.010;12.120;2022-12-20T02:35:09;98709.63;;;-0.51;100.00
17635;BME280;8936;49.010;12.120;2022-12-20T02:37:45;98712.97;;;-0.34;100.00
17635;BME280;8936;49.010;12.120;2022-12-20T02:40:12;98715.06;;;-0.30;100.00
17635;BME280;8936;49.010;12.120;2022-12-20T02:42:39;98718.16;;;-0.26;100.00
17635;BME280;8936;49.010;12.120;2022-12-20T02:45:06;98709.53;;;-0.35;100.00
17635;BME280;8936;49.010;12.120;2022-12-20T02:47:50;98720.59;;;-0.47;100.00
17635;BME280;8936;49.010;12.120;2022-12-20T02:50:19;98717.78;;;-0.46;100.00
17635;BME280;8936;49.010;12.120;2022-12-20T02:52:47;98705.25;;;-0.36;100.00
17635;BME280;8936;49.010;12.120;2022-12-20T02:55:14;98697.63;;;-0.45;100.00
17635;BME280;8936;49.010;12.120;2022-12-20T02:57:41;98693.41;;;-0.55;100.00
17635;BME280;8936;49.010;12.120;2022-12-20T03:00:11;98696.44;;;-0.66;100.00
17635;BME280;8936;49.010;12.120;2022-12-20T03:02:39;98704.13;;;-0.64;100.00
17635;BME280;8936;49.010;12.120;2022-12-20T03:05:25;98708.66;;;-0.58;100.00
17635;BME280;8936;49.010;12.120;2022-12-20T03:07:52;98709.97;;;-0.54;100.00
17635;BME280;8936;49.010;12.120;2022-12-20T03:10:18;98701.94;;;-0.30;100.00
17635;BME280;8936;49.010;12.120;2022-12-20T03:12:45;98690.09;;;-0.26;100.00
17635;BME280;8936;49.010;12.120;2022-12-20T03:15:11;98693.03;;;-0.43;100.00
17635;BME280;8936;49.010;12.120;2022-12-20T03:17:38;98696.44;;;-0.43;100.00
17635;BME280;8936;49.010;12.120;2022-12-20T03:20:04;98691.75;;;-0.56;100.00
17635;BME280;8936;49.010;12.120;2022-12-20T03:22:33;98676.22;;;-0.57;100.00
17635;BME280;8936;49.010;12.120;2022-12-20T03:24:59;98673.13;;;-0.61;100.00
17635;BME280;8936;49.010;12.120;2022-12-20T03:27:26;98677.19;;;-0.58;100.00
17635;BME280;8936;49.010;12.120;2022-12-20T03:29:52;98671.03;;;-0.65;100.00
17635;BME280;8936;49.010;12.120;2022-12-20T03:32:19;98674.28;;;-0.63;100.00
17635;BME280;8936;49.010;12.120;2022-12-20T03:34:45;98673.81;;;-0.67;100.00
17635;BME280;8936;49.010;12.120;2022-12-20T03:37:11;98683.19;;;-0.72;100.00
17635;BME280;8936;49.010;12.120;2022-12-20T03:39:39;98676.94;;;-0.71;100.00
17635;BME280;8936;49.010;12.120;2022-12-20T03:42:06;98667.94;;;-0.69;100.00
17635;BME280;8936;49.010;12.120;2022-12-20T03:44:32;98674.63;;;-0.66;100.00
17635;BME280;8936;49.010;12.120;2022-12-20T03:46:58;98677.06;;;-0.65;100.00
17635;BME280;8936;49.010;12.120;2022-12-20T03:49:25;98680.63;;;-0.58;100.00
17635;BME280;8936;49.010;12.120;2022-12-20T03:51:51;98676.03;;;-0.56;100.00
17635;BME280;8936;49.010;12.120;2022-12-20T03:54:18;98684.09;;;-0.57;100.00
17635;BME280;8936;49.010;12.120;2022-12-20T03:56:46;98678.13;;;-0.51;100.00
17635;BME280;8936;49.010;12.120;2022-12-20T03:59:12;98693.19;;;-0.45;100.00
17635;BME280;8936;49.010;12.120;2022-12-20T04:01:39;98686.50;;;-0.56;100.00
17635;BME280;8936;49.010;12.120;2022-12-20T04:04:12;98683.09;;;-0.56;100.00
17635;BME280;8936;49.010;12.120;2022-12-20T04:06:39;98677.31;;;-0.51;100.00
17635;BME280;8936;49.010;12.120;2022-12-20T04:09:05;98675.78;;;-0.46;100.00
17635;BME280;8936;49.010;12.120;2022-12-20T04:11:31;98678.75;;;-0.41;100.00
17635;BME280;8936;49.010;12.120;2022-12-20T04:13:59;98693.31;;;-0.38;100.00
17635;BME280;8936;49.010;12.120;2022-12-20T04:16:26;98684.63;;;-0.39;100.00
17635;BME280;8936;49.010;12.120;2022-12-20T04:18:53;98688.88;;;-0.38;100.00
17635;BME280;8936;49.010;12.120;2022-12-20T04:21:20;98678.06;;;-0.43;100.00
17635;BME280;8936;49.010;12.120;2022-12-20T04:23:47;98689.22;;;-0.41;100.00
17635;BME280;8936;49.010;12.120;2022-12-20T04:26:13;98682.19;;;-0.40;100.00
17635;BME280;8936;49.010;12.120;2022-12-20T04:28:40;98681.28;;;-0.33;100.00
17635;BME280;8936;49.010;12.120;2022-12-20T04:31:07;98669.91;;;-0.48;100.00
17635;BME280;8936;49.010;12.120;2022-12-20T04:33:34;98670.91;;;-0.49;100.00
17635;BME280;8936;49.010;12.120;2022-12-20T04:36:01;98664.03;;;-0.50;100.00
17635;BME280;8936;49.010;12.120;2022-12-20T04:38:27;98659.50;;;-0.56;100.00
17635;BME280;8936;49.010;12.120;2022-12-20T04:40:54;98649.34;;;-0.59;100.00
17635;BME280;8936;49.010;12.120;2022-12-20T04:43:21;98642.94;;;-0.57;100.00
17635;BME280;8936;49.010;12.120;2022-12-20T04:45:48;98640.81;;;-0.61;100.00
17635;BME280;8936;49.010;12.120;2022-12-20T04:48:16;98644.13;;;-0.67;100.00
17635;BME280;8936;49.010;12.120;2022-12-20T04:50:43;98641.88;;;-0.47;100.00
17635;BME280;8936;49.010;12.120;2022-12-20T04:53:12;98651.44;;;-0.55;100.00
17635;BME280;8936;49.010;12.120;2022-12-20T04:55:56;98671.22;;;-0.44;100.00
17635;BME280;8936;49.010;12.120;2022-12-20T04:58:22;98676.38;;;-0.36;100.00
17635;BME280;8936;49.010;12.120;2022-12-20T05:00:49;98678.16;;;-0.28;100.00
17635;BME280;8936;49.010;12.120;2022-12-20T05:03:17;98670.38;;;-0.44;100.00
17635;BME280;8936;49.010;12.120;2022-12-20T05:05:44;98676.81;;;-0.47;100.00
17635;BME280;8936;49.010;12.120;2022-12-20T05:08:10;98659.25;;;-0.46;100.00
17635;BME280;8936;49.010;12.120;2022-12-20T05:10:36;98650.13;;;-0.59;100.00
17635;BME280;8936;49.010;12.120;2022-12-20T05:13:03;98639.84;;;-0.60;100.00
17635;BME280;8936;49.010;12.120;2022-12-20T05:15:29;98628.94;;;-0.72;100.00
17635;BME280;8936;49.010;12.120;2022-12-20T05:17:55;98627.81;;;-0.77;100.00
17635;BME280;8936;49.010;12.120;2022-12-20T05:20:25;98624.47;;;-0.71;100.00
17635;BME280;8936;49.010;12.120;2022-12-20T05:22:51;98616.94;;;-0.66;100.00
17635;BME280;8936;49.010;12.120;2022-12-20T05:25:35;98613.41;;;-0.59;100.00
17635;BME280;8936;49.010;12.120;2022-12-20T05:28:28;98630.09;;;-0.51;100.00
17635;BME280;8936;49.010;12.120;2022-12-20T05:30:55;98619.47;;;-0.58;100.00
17635;BME280;8936;49.010;12.120;2022-12-20T05:33:21;98624.25;;;-0.62;100.00
17635;BME280;8936;49.010;12.120;2022-12-20T05:35:49;98628.44;;;-0.52;100.00
17635;BME280;8936;49.010;12.120;2022-12-20T05:38:15;98619.59;;;-0.51;100.00
17635;BME280;8936;49.010;12.120;2022-12-20T05:40:42;98609.09;;;-0.51;100.00
17635;BME280;8936;49.010;12.120;2022-12-20T05:43:08;98622.22;;;-0.51;100.00
17635;BME280;8936;49.010;12.120;2022-12-20T05:45:34;98627.31;;;-0.50;100.00
17635;BME280;8936;49.010;12.120;2022-12-20T05:48:01;98625.66;;;-0.51;100.00
17635;BME280;8936;49.010;12.120;2022-12-20T05:50:27;98631.72;;;-0.50;100.00
17635;BME280;8936;49.010;12.120;2022-12-20T05:52:55;98636.44;;;-0.46;100.00
17635;BME280;8936;49.010;12.120;2022-12-20T05:55:21;98643.53;;;-0.46;100.00
17635;BME280;8936;49.010;12.120;2022-12-20T05:57:47;98636.09;;;-0.43;100.00
17635;BME280;8936;49.010;12.120;2022-12-20T06:00:14;98645.25;;;-0.39;100.00
17635;BME280;8936;49.010;12.120;2022-12-20T06:02:41;98630.41;;;-0.46;100.00
17635;BME280;8936;49.010;12.120;2022-12-20T06:05:07;98625.94;;;-0.46;100.00
17635;BME280;8936;49.010;12.120;2022-12-20T06:07:34;98615.88;;;-0.57;100.00
17635;BME280;8936;49.010;12.120;2022-12-20T06:10:02;98608.00;;;-0.57;100.00
17635;BME280;8936;49.010;12.120;2022-12-20T06:12:28;98613.59;;;-0.60;100.00
17635;BME280;8936;49.010;12.120;2022-12-20T06:14:54;98604.09;;;-0.61;100.00
17635;BME280;8936;49.010;12.120;2022-12-20T06:17:21;98600.56;;;-0.68;100.00
17635;BME280;8936;49.010;12.120;2022-12-20T06:19:47;98615.94;;;-0.65;100.00
17635;BME280;8936;49.010;12.120;2022-12-20T06:22:13;98622.22;;;-0.51;100.00
17635;BME280;8936;49.010;12.120;2022-12-20T06:24:40;98629.28;;;-0.52;100.00
17635;BME280;8936;49.010;12.120;2022-12-20T06:27:07;98631.38;;;-0.47;100.00
17635;BME280;8936;49.010;12.120;2022-12-20T06:29:34;98627.00;;;-0.55;100.00
17635;BME280;8936;49.010;12.120;2022-12-20T06:32:01;98625.38;;;-0.56;100.00
17635;BME280;8936;49.010;12.120;2022-12-20T06:34:29;98618.66;;;-0.59;100.00
17635;BME280;8936;49.010;12.120;2022-12-20T06:36:55;98621.19;;;-0.65;100.00
17635;BME280;8936;49.010;12.120;2022-12-20T06:39:22;98620.19;;;-0.64;100.00
17635;BME280;8936;49.010;12.120;2022-12-20T06:41:48;98611.78;;;-0.60;100.00
17635;BME280;8936;49.010;12.120;2022-12-20T06:44:16;98624.25;;;-0.62;100.00
17635;BME280;8936;49.010;12.120;2022-12-20T06:46:42;98628.00;;;-0.56;100.00
17635;BME280;8936;49.010;12.120;2022-12-20T06:49:09;98615.88;;;-0.57;100.00
17635;BME280;8936;49.010;12.120;2022-12-20T06:51:35;98615.63;;;-0.47;100.00
17635;BME280;8936;49.010;12.120;2022-12-20T06:54:02;98630.81;;;-0.35;100.00
17635;BME280;8936;49.010;12.120;2022-12-20T06:56:28;98625.66;;;-0.28;100.00
17635;BME280;8936;49.010;12.120;2022-12-20T06:58:54;98628.81;;;-0.33;100.00
17635;BME280;8936;49.010;12.120;2022-12-20T07:01:22;98636.63;;;-0.47;100.00
17635;BME280;8936;49.010;12.120;2022-12-20T07:03:48;98629.38;;;-0.45;100.00
17635;BME280;8936;49.010;12.120;2022-12-20T07:06:14;98605.97;;;-0.47;100.00
17635;BME280;8936;49.010;12.120;2022-12-20T07:08:41;98605.97;;;-0.47;100.00
17635;BME280;8936;49.010;12.120;2022-12-20T07:11:07;98606.59;;;-0.45;100.00
17635;BME280;8936;49.010;12.120;2022-12-20T07:13:33;98600.19;;;-0.42;100.00
17635;BME280;8936;49.010;12.120;2022-12-20T07:16:00;98600.25;;;-0.50;100.00
17635;BME280;8936;49.010;12.120;2022-12-20T07:18:28;98593.94;;;-0.41;100.00
17635;BME280;8936;49.010;12.120;2022-12-20T07:20:57;98597.94;;;-0.31;100.00
17635;BME280;8936;49.010;12.120;2022-12-20T07:23:24;98589.97;;;-0.37;100.00
17635;BME280;8936;49.010;12.120;2022-12-20T07:25:54;98588.16;;;-0.37;100.00
17635;BME280;8936;49.010;12.120;2022-12-20T07:28:20;98583.50;;;-0.49;100.00
17635;BME280;8936;49.010;12.120;2022-12-20T07:30:46;98561.41;;;-0.55;100.00
17635;BME280;8936;49.010;12.120;2022-12-20T07:33:13;98549.81;;;-0.61;100.00
17635;BME280;8936;49.010;12.120;2022-12-20T07:35:40;98562.22;;;-0.55;100.00
17635;BME280;8936;49.010;12.120;2022-12-20T07:38:07;98582.81;;;-0.43;100.00
17635;BME280;8936;49.010;12.120;2022-12-20T07:40:34;98588.16;;;-0.37;100.00
17635;BME280;8936;49.010;12.120;2022-12-20T07:43:00;98571.06;;;-0.33;100.00
17635;BME280;8936;49.010;12.120;2022-12-20T07:45:27;98597.94;;;-0.31;100.00
17635;BME280;8936;49.010;12.120;2022-12-20T07:47:53;98618.19;;;-0.17;100.00
17635;BME280;8936;49.010;12.120;2022-12-20T07:50:21;98585.84;;;-0.32;100.00
17635;BME280;8936;49.010;12.120;2022-12-20T07:52:49;98630.00;;;-0.21;100.00
17635;BME280;8936;49.010;12.120;2022-12-20T07:55:15;98640.59;;;0.23;100.00
17635;BME280;8936;49.010;12.120;2022-12-20T07:57:44;98633.97;;;0.13;100.00
17635;BME280;8936;49.010;12.120;2022-12-20T08:00:13;98591.22;;;-0.11;100.00
17635;BME280;8936;49.010;12.120;2022-12-20T08:02:43;98623.81;;;0.10;100.00
17635;BME280;8936;49.010;12.120;2022-12-20T08:05:12;98619.22;;;0.12;100.00
17635;BME280;8936;49.010;12.120;2022-12-20T08:07:40;98618.03;;;-0.01;100.00
17635;BME280;8936;49.010;12.120;2022-12-20T08:10:09;98617.69;;;0.03;100.00
17635;BME280;8936;49.010;12.120;2022-12-20T08:12:36;98625.47;;;0.11;100.00
17635;BME280;8936;49.010;12.120;2022-12-20T08:15:03;98629.00;;;0.18;100.00
17635;BME280;8936;49.010;12.120;2022-12-20T08:17:30;98616.84;;;0.02;100.00
17635;BME280;8936;49.010;12.120;2022-12-20T08:19:56;98600.53;;;-0.08;100.00
17635;BME280;8936;49.010;12.120;2022-12-20T08:22:24;98602.34;;;-0.09;100.00
17635;BME280;8936;49.010;12.120;2022-12-20T08:24:50;98603.09;;;0.00;100.00
17635;BME280;8936;49.010;12.120;2022-12-20T08:27:18;98608.06;;;0.10;100.00
17635;BME280;8936;49.010;12.120;2022-12-20T08:29:44;98625.34;;;0.04;100.00
17635;BME280;8936;49.010;12.120;2022-12-20T08:32:11;98613.31;;;-0.05;100.00
17635;BME280;8936;49.010;12.120;2022-12-20T08:34:38;98597.03;;;-0.01;100.00
17635;BME280;8936;49.010;12.120;2022-12-20T08:37:04;98589.97;;;0.00;100.00
17635;BME280;8936;49.010;12.120;2022-12-20T08:39:31;98587.00;;;0.03;100.00
17635;BME280;8936;49.010;12.120;2022-12-20T08:41:57;98592.66;;;0.07;100.00
17635;BME280;8936;49.010;12.120;2022-12-20T08:44:24;98587.78;;;0.04;100.00
17635;BME280;8936;49.010;12.120;2022-12-20T08:46:51;98593.13;;;0.10;100.00
17635;BME280;8936;49.010;12.120;2022-12-20T08:49:18;98587.25;;;0.08;100.00
17635;BME280;8936;49.010;12.120;2022-12-20T08:51:44;98589.88;;;0.08;100.00
17635;BME280;8936;49.010;12.120;2022-12-20T08:54:11;98585.06;;;-0.03;100.00
17635;BME280;8936;49.010;12.120;2022-12-20T08:56:37;98579.63;;;-0.02;100.00
17635;BME280;8936;49.010;12.120;2022-12-20T08:59:04;98566.78;;;0.04;100.00
17635;BME280;8936;49.010;12.120;2022-12-20T09:01:31;98560.63;;;-0.04;100.00
17635;BME280;8936;49.010;12.120;2022-12-20T09:03:58;98565.53;;;-0.01;100.00
17635;BME280;8936;49.010;12.120;2022-12-20T09:06:24;98568.50;;;-0.04;100.00
17635;BME280;8936;49.010;12.120;2022-12-20T09:08:51;98552.19;;;0.01;100.00
17635;BME280;8936;49.010;12.120;2022-12-20T09:11:18;98562.53;;;0.03;100.00
17635;BME280;8936;49.010;12.120;2022-12-20T09:13:45;98564.81;;;0.06;100.00
17635;BME280;8936;49.010;12.120;2022-12-20T09:16:12;98565.88;;;0.11;100.00
17635;BME280;8936;49.010;12.120;2022-12-20T09:18:40;98560.06;;;0.16;100.00
17635;BME280;8936;49.010;12.120;2022-12-20T09:21:07;98558.00;;;0.11;100.00
17635;BME280;8936;49.010;12.120;2022-12-20T09:23:34;98566.34;;;0.15;100.00
17635;BME280;8936;49.010;12.120;2022-12-20T09:26:01;98564.69;;;0.14;100.00
17635;BME280;8936;49.010;12.120;2022-12-20T09:28:28;98561.91;;;0.15;100.00
17635;BME280;8936;49.010;12.120;2022-12-20T09:30:56;98552.94;;;0.24;100.00
17635;BME280;8936;49.010;12.120;2022-12-20T09:33:23;98549.75;;;0.29;100.00
17635;BME280;8936;49.010;12.120;2022-12-20T09:35:50;98550.56;;;0.29;100.00
17635;BME280;8936;49.010;12.120;2022-12-20T09:38:17;98548.84;;;0.22;100.00
17635;BME280;8936;49.010;12.120;2022-12-20T09:40:43;98538.97;;;0.24;100.00
17635;BME280;8936;49.010;12.120;2022-12-20T09:43:10;98540.06;;;0.29;100.00
17635;BME280;8936;49.010;12.120;2022-12-20T09:45:37;98547.47;;;0.40;100.00
17635;BME280;8936;49.010;12.120;2022-12-20T09:48:04;98538.34;;;0.36;100.00
17635;BME280;8936;49.010;12.120;2022-12-20T09:50:36;98544.13;;;0.32;100.00
17635;BME280;8936;49.010;12.120;2022-12-20T09:53:11;98560.34;;;0.35;100.00
17635;BME280;8936;49.010;12.120;2022-12-20T09:55:40;98562.97;;;0.35;100.00
17635;BME280;8936;49.010;12.120;2022-12-20T09:58:16;98553.53;;;0.41;100.00
17635;BME280;8936;49.010;12.120;2022-12-20T10:00:46;98542.78;;;0.36;100.00
17635;BME280;8936;49.010;12.120;2022-12-20T10:03:15;98543.41;;;0.38;100.00
17635;BME280;8936;49.010;12.120;2022-12-20T10:05:45;98531.91;;;0.39;100.00
17635;BME280;8936;49.010;12.120;2022-12-20T10:08:20;98522.31;;;0.46;100.00
17635;BME280;8936;49.010;12.120;2022-12-20T10:10:50;98521.94;;;0.49;100.00
17635;BME280;8936;49.010;12.120;2022-12-20T10:13:22;98539.22;;;0.58;100.00
17635;BME280;8936;49.010;12.120;2022-12-20T10:15:56;98527.06;;;0.57;100.00
17635;BME280;8936;49.010;12.120;2022-12-20T10:18:35;98525.88;;;0.60;100.00
17635;BME280;8936;49.010;12.120;2022-12-20T10:21:07;98531.59;;;0.63;100.00
17635;BME280;8936;49.010;12.120;2022-12-20T10:23:39;98531.97;;;0.60;100.00
17635;BME280;8936;49.010;12.120;2022-12-20T10:26:08;98538.84;;;0.61;100.00
17635;BME280;8936;49.010;12.120;2022-12-20T10:28:34;98533.59;;;0.61;100.00
17635;BME280;8936;49.010;12.120;2022-12-20T10:31:01;98509.50;;;0.58;100.00
17635;BME280;8936;49.010;12.120;2022-12-20T10:33:29;98507.03;;;0.56;100.00
17635;BME280;8936;49.010;12.120;2022-12-20T10:35:55;98502.06;;;0.61;100.00
17635;BME280;8936;49.010;12.120;2022-12-20T10:38:44;98500.50;;;0.67;100.00
17635;BME280;8936;49.010;12.120;2022-12-20T10:41:13;98504.56;;;0.69;100.00
17635;BME280;8936;49.010;12.120;2022-12-20T10:43:41;98499.69;;;0.66;100.00
17635;BME280;8936;49.010;12.120;2022-12-20T10:46:08;98504.34;;;0.85;100.00
17635;BME280;8936;49.010;12.120;2022-12-20T10:48:36;98492.19;;;0.84;100.00
17635;BME280;8936;49.010;12.120;2022-12-20T10:51:11;98489.00;;;0.89;100.00
17635;BME280;8936;49.010;12.120;2022-12-20T10:53:48;98474.22;;;0.88;100.00
17635;BME280;8936;49.010;12.120;2022-12-20T10:56:16;98470.31;;;0.84;100.00
17635;BME280;8936;49.010;12.120;2022-12-20T10:58:50;98463.53;;;0.89;100.00
17635;BME280;8936;49.010;12.120;2022-12-20T11:01:17;98458.44;;;0.88;100.00
17635;BME280;8936;49.010;12.120;2022-12-20T11:03:51;98451.38;;;0.88;100.00
17635;BME280;8936;49.010;12.120;2022-12-20T11:06:18;98445.50;;;0.86;100.00
17635;BME280;8936;49.010;12.120;2022-12-20T11:08:46;98447.38;;;0.92;100.00
17635;BME280;8936;49.010;12.120;2022-12-20T11:11:14;98433.84;;;0.95;100.00
17635;BME280;8936;49.010;12.120;2022-12-20T11:13:41;98431.41;;;0.94;100.00
17635;BME280;8936;49.010;12.120;2022-12-20T11:19:06;98423.72;;;0.92;100.00
17635;BME280;8936;49.010;12.120;2022-12-20T11:21:39;98416.06;;;0.97;100.00
17635;BME280;8936;49.010;12.120;2022-12-20T11:24:09;98407.94;;;0.92;100.00
17635;BME280;8936;49.010;12.120;2022-12-20T11:29:22;98406.41;;;4.86;100.00
17635;BME280;8936;49.010;12.120;2022-12-20T11:31:53;98403.56;;;5.80;100.00
17635;BME280;8936;49.010;12.120;2022-12-20T11:34:24;98380.13;;;6.32;100.00
17635;BME280;8936;49.010;12.120;2022-12-20T11:37:02;98376.84;;;6.89;100.00
17635;BME280;8936;49.010;12.120;2022-12-20T11:39:33;98380.25;;;7.31;100.00
17635;BME280;8936;49.010;12.120;2022-12-20T11:42:04;98377.69;;;7.71;100.00
17635;BME280;8936;49.010;12.120;2022-12-20T11:44:40;98365.28;;;8.00;100.00
17635;BME280;8936;49.010;12.120;2022-12-20T11:47:18;98354.59;;;8.23;100.00
17635;BME280;8936;49.010;12.120;2022-12-20T11:49:52;98348.78;;;8.54;98.69
17635;BME280;8936;49.010;12.120;2022-12-20T11:52:27;98346.91;;;8.83;96.91
17635;BME280;8936;49.010;12.120;2022-12-20T11:55:03;98350.69;;;9.04;95.25
17635;BME280;8936;49.010;12.120;2022-12-20T11:57:34;98340.94;;;9.09;93.69
17635;BME280;8936;49.010;12.120;2022-12-20T12:00:03;98335.28;;;9.22;92.44
17635;BME280;8936;49.010;12.120;2022-12-20T12:02:32;98330.41;;;9.36;90.79
17635;BME280;8936;49.010;12.120;2022-12-20T12:05:02;98325.72;;;9.43;89.57
17635;BME280;8936;49.010;12.120;2022-12-20T12:07:29;98325.25;;;9.46;88.60
17635;BME280;8936;49.010;12.120;2022-12-20T12:09:58;98326.34;;;9.50;87.48
17635;BME280;8936;49.010;12.120;2022-12-20T12:12:27;98316.75;;;9.49;86.88
17635;BME280;8936;49.010;12.120;2022-12-20T12:14:56;98312.53;;;9.53;86.80
17635;BME280;8936;49.010;12.120;2022-12-20T12:17:25;98312.28;;;9.00;85.22
17635;BME280;8936;49.010;12.120;2022-12-20T12:19:55;98316.16;;;8.31;96.36
17635;BME280;8936;49.010;12.120;2022-12-20T12:22:23;98321.59;;;8.97;92.33
17635;BME280;8936;49.010;12.120;2022-12-20T12:24:54;98323.75;;;9.00;89.83
17635;BME280;8936;49.010;12.120;2022-12-20T12:27:23;98324.78;;;9.16;87.62
17635;BME280;8936;49.010;12.120;2022-12-20T12:29:51;98326.91;;;8.97;87.71
17635;BME280;8936;49.010;12.120;2022-12-20T12:32:20;98320.69;;;9.08;87.28
17635;BME280;8936;49.010;12.120;2022-12-20T12:34:55;98323.91;;;9.27;85.23
17635;BME280;8936;49.010;12.120;2022-12-20T12:37:34;98318.63;;;9.32;84.00
17635;BME280;8936;49.010;12.120;2022-12-20T12:40:17;98311.44;;;9.33;83.49
17635;BME280;8936;49.010;12.120;2022-12-20T12:45:36;98295.59;;;9.43;81.35
17635;BME280;8936;49.010;12.120;2022-12-20T12:48:06;98295.06;;;9.24;82.23
17635;BME280;8936;49.010;12.120;2022-12-20T12:50:37;98289.50;;;9.47;80.48
17635;BME280;8936;49.010;12.120;2022-12-20T12:53:04;98286.63;;;9.49;80.03
17635;BME280;8936;49.010;12.120;2022-12-20T13:01:09;98291.09;;;9.65;77.63
17635;BME280;8936;49.010;12.120;2022-12-20T13:03:40;98281.72;;;9.62;77.11
17635;BME280;8936;49.010;12.120;2022-12-20T13:09:15;98298.97;;;9.55;76.59
17635;BME280;8936;49.010;12.120;2022-12-20T13:11:42;98297.81;;;6.50;90.23
17635;BME280;8936;49.010;12.120;2022-12-20T13:14:10;98297.38;;;4.78;100.00
17635;BME280;8936;49.010;12.120;2022-12-20T13:16:38;98302.53;;;6.36;100.00
17635;BME280;8936;49.010;12.120;2022-12-20T13:19:12;98288.03;;;8.35;100.00
17635;BME280;8936;49.010;12.120;2022-12-20T13:21:39;98298.56;;;8.91;91.23
17635;BME280;8936;49.010;12.120;2022-12-20T13:24:28;98294.84;;;9.09;86.94
17635;BME280;8936;49.010;12.120;2022-12-20T13:27:00;98299.53;;;9.18;84.13